createdAt,value
2023-05-08T00:00:03.257Z,247.96
2023-05-08T00:01:03.324Z,248.46
2023-05-08T00:02:03.345Z,246.73
2023-05-08T00:03:03.408Z,247.33
2023-05-08T00:04:03.610Z,246.80
2023-05-08T00:05:03.494Z,247.28
2023-05-08T00:06:03.499Z,247.62
2023-05-08T00:07:03.502Z,246.38
2023-05-08T00:08:03.627Z,247.27
2023-05-08T00:09:03.588Z,247.23
2023-05-08T00:10:03.652Z,247.92
2023-05-08T00:11:03.714Z,246.64
2023-05-08T00:12:03.713Z,247.51
2023-05-08T00:13:03.811Z,247.60
2023-05-08T00:14:03.726Z,247.61
2023-05-08T00:15:03.699Z,247.02
2023-05-08T00:16:03.789Z,247.93
2023-05-08T00:17:03.802Z,247.30
2023-05-08T00:18:03.728Z,247.33
2023-05-08T00:19:03.691Z,247.66
2023-05-08T00:20:03.697Z,246.82
2023-05-08T00:21:03.712Z,246.10
2023-05-08T00:22:03.680Z,248.68
2023-05-08T00:23:03.699Z,248.69
2023-05-08T00:24:03.669Z,248.62
2023-05-08T00:25:03.667Z,249.09
2023-05-08T00:26:04.112Z,247.28
2023-05-08T00:27:03.655Z,247.43
2023-05-08T00:28:03.644Z,248.09
2023-05-08T00:29:05.060Z,247.68
2023-05-08T00:30:03.627Z,250.00
2023-05-08T00:31:03.672Z,248.36
2023-05-08T00:32:03.749Z,249.01
2023-05-08T00:33:03.775Z,248.89
2023-05-08T00:34:03.814Z,247.78
2023-05-08T00:35:03.823Z,248.67
2023-05-08T00:36:03.878Z,246.94
2023-05-08T00:37:03.909Z,247.04
2023-05-08T00:38:03.969Z,247.51
2023-05-08T00:39:03.973Z,248.02
2023-05-08T00:40:04.044Z,246.66
2023-05-08T00:41:04.052Z,247.13
2023-05-08T00:42:04.082Z,246.92
2023-05-08T00:43:04.126Z,247.61
2023-05-08T00:44:04.181Z,247.52
2023-05-08T00:45:04.203Z,247.82
2023-05-08T00:46:04.313Z,248.09
2023-05-08T00:47:04.290Z,248.68
2023-05-08T00:48:04.337Z,248.71
2023-05-08T00:49:04.267Z,248.73
2023-05-08T00:50:04.264Z,248.15
2023-05-08T00:51:04.301Z,248.29
2023-05-08T00:52:04.330Z,249.27
2023-05-08T00:53:04.260Z,248.65
2023-05-08T00:54:04.303Z,247.76
2023-05-08T00:55:04.250Z,248.15
2023-05-08T00:56:04.232Z,247.45
2023-05-08T00:57:04.275Z,247.44
2023-05-08T00:58:04.280Z,247.11
2023-05-08T00:59:04.263Z,247.23
2023-05-08T01:00:04.300Z,246.94
2023-05-08T01:01:04.328Z,248.35
2023-05-08T01:02:04.359Z,247.60
2023-05-08T01:03:04.472Z,248.05
2023-05-08T01:04:04.451Z,247.04
2023-05-08T01:05:04.527Z,247.17
2023-05-08T01:06:04.591Z,247.16
2023-05-08T01:07:04.591Z,248.98
2023-05-08T01:08:04.626Z,247.78
2023-05-08T01:09:04.675Z,247.89
2023-05-08T01:10:04.713Z,247.10
2023-05-08T01:11:04.738Z,246.66
2023-05-08T01:12:04.810Z,246.96
2023-05-08T01:13:04.878Z,248.09
2023-05-08T01:14:04.840Z,246.96
2023-05-08T01:15:04.889Z,247.71
2023-05-08T01:16:04.955Z,247.21
2023-05-08T01:17:04.988Z,249.02
2023-05-08T01:18:05.114Z,246.93
2023-05-08T01:19:05.085Z,246.60
2023-05-08T01:20:05.135Z,249.72
2023-05-08T01:21:05.165Z,247.81
2023-05-08T01:22:05.201Z,246.10
2023-05-08T01:23:05.251Z,248.11
2023-05-08T01:24:05.302Z,247.33
2023-05-08T01:25:05.344Z,248.69
2023-05-08T01:26:05.374Z,247.52
2023-05-08T01:27:05.455Z,247.39
2023-05-08T01:28:05.489Z,247.78
2023-05-08T01:29:05.663Z,246.61
2023-05-08T01:30:05.569Z,247.93
2023-05-08T01:31:05.631Z,247.28
2023-05-08T01:32:05.630Z,246.00
2023-05-08T01:33:05.942Z,247.25
2023-05-08T01:34:15.697Z,248.94
2023-05-08T01:35:05.740Z,249.10
2023-05-08T01:36:05.792Z,249.41
2023-05-08T01:37:05.842Z,249.39
2023-05-08T01:38:05.845Z,248.95
2023-05-08T01:39:05.793Z,248.59
2023-05-08T01:40:05.848Z,248.48
2023-05-08T01:41:13.749Z,248.66
2023-05-08T01:42:06.138Z,248.84
2023-05-08T01:43:05.853Z,248.99
2023-05-08T01:44:05.836Z,249.08
2023-05-08T01:45:05.729Z,248.46
2023-05-08T01:46:05.792Z,246.52
2023-05-08T01:47:06.074Z,246.88
2023-05-08T01:48:05.846Z,246.27
2023-05-08T01:49:05.725Z,247.53
2023-05-08T01:50:05.812Z,247.52
2023-05-08T01:51:05.871Z,248.21
2023-05-08T01:52:05.863Z,245.91
2023-05-08T01:53:05.892Z,248.08
2023-05-08T01:54:08.044Z,246.88
2023-05-08T01:55:05.952Z,247.11
2023-05-08T01:56:06.728Z,247.05
2023-05-08T01:57:05.922Z,247.76
2023-05-08T01:58:05.923Z,248.92
2023-05-08T01:59:06.731Z,246.56
2023-05-08T02:00:05.928Z,246.42
2023-05-08T02:01:05.969Z,246.82
2023-05-08T02:02:05.977Z,247.32
2023-05-08T02:03:05.946Z,245.45
2023-05-08T02:04:06.028Z,247.00
2023-05-08T02:05:06.000Z,247.44
2023-05-08T02:06:06.740Z,248.26
2023-05-08T02:07:06.012Z,245.47
2023-05-08T02:08:06.018Z,247.19
2023-05-08T02:09:06.079Z,245.55
2023-05-08T02:10:06.001Z,246.95
2023-05-08T02:11:06.079Z,246.33
2023-05-08T02:12:05.979Z,246.10
2023-05-08T02:13:06.198Z,246.67
2023-05-08T02:14:06.036Z,247.43
2023-05-08T02:15:06.162Z,247.54
2023-05-08T02:16:06.068Z,247.62
2023-05-08T02:17:06.016Z,247.37
2023-05-08T02:18:06.088Z,248.17
2023-05-08T02:19:06.022Z,246.76
2023-05-08T02:20:06.025Z,247.51
2023-05-08T02:21:06.075Z,247.73
2023-05-08T02:22:06.045Z,247.68
2023-05-08T02:23:06.094Z,247.64
2023-05-08T02:24:05.963Z,249.17
2023-05-08T02:25:06.035Z,247.69
2023-05-08T02:26:06.043Z,247.63
2023-05-08T02:27:06.052Z,248.38
2023-05-08T02:28:05.920Z,246.01
2023-05-08T02:29:06.152Z,246.60
2023-05-08T02:30:06.120Z,248.14
2023-05-08T02:31:06.037Z,246.73
2023-05-08T02:32:06.095Z,247.52
2023-05-08T02:33:06.174Z,247.06
2023-05-08T02:34:06.164Z,247.38
2023-05-08T02:35:06.224Z,246.52
2023-05-08T02:36:06.291Z,246.70
2023-05-08T02:37:06.331Z,246.43
2023-05-08T02:38:06.402Z,245.86
2023-05-08T02:39:06.438Z,245.34
2023-05-08T02:40:06.499Z,242.78
2023-05-08T02:41:06.567Z,242.08
2023-05-08T02:42:06.591Z,240.43
2023-05-08T02:43:06.594Z,240.37
2023-05-08T02:44:06.576Z,238.99
2023-05-08T02:45:06.601Z,238.71
2023-05-08T02:46:06.608Z,231.84
2023-05-08T02:47:07.301Z,225.75
2023-05-08T02:48:06.698Z,220.79
2023-05-08T02:49:06.566Z,219.08
2023-05-08T02:50:06.563Z,216.89
2023-05-08T02:51:06.559Z,209.84
2023-05-08T02:52:06.550Z,205.02
2023-05-08T02:53:06.566Z,201.50
2023-05-08T02:54:06.549Z,197.42
2023-05-08T02:55:06.552Z,195.67
2023-05-08T02:56:06.556Z,191.52
2023-05-08T02:57:06.552Z,189.26
2023-05-08T02:58:06.541Z,183.03
2023-05-08T02:59:06.577Z,181.41
2023-05-08T03:00:06.615Z,178.32
2023-05-08T03:01:06.796Z,173.57
2023-05-08T03:02:06.785Z,168.00
2023-05-08T03:03:06.918Z,163.39
2023-05-08T03:04:06.875Z,157.52
2023-05-08T03:05:06.939Z,150.11
2023-05-08T03:06:06.987Z,145.60
2023-05-08T03:07:07.057Z,138.88
2023-05-08T03:08:07.105Z,134.02
2023-05-08T03:09:07.147Z,129.30
2023-05-08T03:10:07.196Z,122.41
2023-05-08T03:11:07.223Z,115.31
2023-05-08T03:12:07.254Z,104.81
2023-05-08T03:13:07.278Z,95.73
2023-05-08T03:14:07.262Z,87.29
2023-05-08T03:15:07.290Z,77.81
2023-05-08T03:16:07.358Z,69.36
2023-05-08T03:17:07.324Z,62.75
2023-05-08T03:18:07.344Z,56.84
2023-05-08T03:19:07.383Z,49.94
2023-05-08T03:20:07.397Z,39.86
2023-05-08T03:21:07.402Z,34.75
2023-05-08T03:22:07.442Z,26.87
2023-05-08T03:23:07.463Z,25.00
2023-05-08T03:24:07.447Z,24.92
2023-05-08T03:25:07.482Z,25.00
2023-05-08T03:26:07.479Z,25.89
2023-05-08T03:27:07.493Z,25.00
2023-05-08T03:28:07.495Z,25.00
2023-05-08T03:29:07.493Z,25.00
2023-05-08T03:30:07.543Z,25.07
2023-05-08T03:31:07.527Z,24.37
2023-05-08T03:32:07.491Z,20.75
2023-05-08T03:33:07.562Z,16.07
2023-05-08T03:34:07.510Z,14.30
2023-05-08T03:35:07.504Z,10.48
2023-05-08T03:36:07.498Z,23.42
2023-05-08T03:37:07.526Z,25.99
2023-05-08T03:38:07.534Z,25.91
2023-05-08T03:39:07.565Z,25.83
2023-05-08T03:40:07.541Z,25.09
2023-05-08T03:41:07.545Z,25.21
2023-05-08T03:42:07.604Z,26.69
2023-05-08T03:43:07.580Z,27.29
2023-05-08T03:44:07.554Z,26.46
2023-05-08T03:45:07.579Z,25.52
2023-05-08T03:46:07.689Z,25.60
2023-05-08T03:47:07.744Z,25.58
2023-05-08T03:48:07.715Z,25.63
2023-05-08T03:49:07.609Z,23.85
2023-05-08T03:50:07.581Z,24.34
2023-05-08T03:51:07.602Z,25.59
2023-05-08T03:52:07.796Z,25.39
2023-05-08T03:53:07.633Z,25.43
2023-05-08T03:54:07.618Z,25.64
2023-05-08T03:55:07.754Z,25.47
2023-05-08T03:56:07.666Z,25.95
2023-05-08T03:57:07.647Z,26.27
2023-05-08T03:58:07.651Z,27.15
2023-05-08T03:59:07.657Z,26.04
2023-05-08T04:00:07.726Z,25.00
2023-05-08T04:01:07.699Z,26.40
2023-05-08T04:02:07.754Z,26.72
2023-05-08T04:03:07.803Z,30.98
2023-05-08T04:04:07.719Z,34.02
2023-05-08T04:05:07.693Z,34.77
2023-05-08T04:06:07.724Z,35.83
2023-05-08T04:07:07.700Z,38.04
2023-05-08T04:08:07.731Z,36.16
2023-05-08T04:09:07.756Z,36.33
2023-05-08T04:10:07.743Z,35.67
2023-05-08T04:11:07.762Z,33.40
2023-05-08T04:12:07.809Z,32.50
2023-05-08T04:13:07.825Z,32.04
2023-05-08T04:14:07.799Z,31.37
2023-05-08T04:15:07.756Z,30.66
2023-05-08T04:16:07.764Z,31.71
2023-05-08T04:17:08.014Z,30.73
2023-05-08T04:18:07.852Z,29.10
2023-05-08T04:19:07.808Z,30.17
2023-05-08T04:20:10.785Z,31.37
2023-05-08T04:21:07.812Z,32.55
2023-05-08T04:22:07.912Z,32.56
2023-05-08T04:23:07.852Z,33.77
2023-05-08T04:24:07.844Z,37.35
2023-05-08T04:25:07.881Z,36.07
2023-05-08T04:26:07.854Z,38.33
2023-05-08T04:27:07.890Z,38.34
2023-05-08T04:28:07.903Z,36.31
2023-05-08T04:29:07.925Z,43.46
2023-05-08T04:30:07.928Z,41.73
2023-05-08T04:31:07.947Z,41.02
2023-05-08T04:32:08.234Z,37.17
2023-05-08T04:33:08.011Z,36.78
2023-05-08T04:34:07.972Z,36.74
2023-05-08T04:35:08.009Z,35.78
2023-05-08T04:36:07.998Z,35.88
2023-05-08T04:37:08.049Z,33.81
2023-05-08T04:38:08.019Z,35.19
2023-05-08T04:39:08.022Z,36.44
2023-05-08T04:40:08.049Z,35.42
2023-05-08T04:41:08.089Z,34.68
2023-05-08T04:42:08.052Z,35.36
2023-05-08T04:43:08.096Z,34.51
2023-05-08T04:44:08.083Z,33.61
2023-05-08T04:45:08.115Z,32.22
2023-05-08T04:46:08.161Z,31.99
2023-05-08T04:47:08.128Z,32.77
2023-05-08T04:48:08.179Z,33.09
2023-05-08T04:49:08.136Z,33.01
2023-05-08T04:50:08.174Z,33.33
2023-05-08T04:51:08.195Z,33.30
2023-05-08T04:52:08.189Z,31.53
2023-05-08T04:53:08.202Z,31.22
2023-05-08T04:54:08.799Z,32.90
2023-05-08T04:55:08.216Z,29.97
2023-05-08T04:56:08.229Z,28.01
2023-05-08T04:57:08.293Z,26.55
2023-05-08T04:58:08.261Z,28.76
2023-05-08T04:59:08.269Z,28.75
2023-05-08T05:00:08.290Z,29.44
2023-05-08T05:01:08.324Z,30.08
2023-05-08T05:02:08.472Z,31.05
2023-05-08T05:03:08.395Z,32.37
2023-05-08T05:04:08.424Z,35.62
2023-05-08T05:05:08.297Z,44.23
2023-05-08T05:06:08.301Z,42.19
2023-05-08T05:07:08.317Z,41.39
2023-05-08T05:08:08.319Z,41.35
2023-05-08T05:09:08.355Z,41.48
2023-05-08T05:10:08.348Z,41.63
2023-05-08T05:11:08.350Z,41.80
2023-05-08T05:12:08.355Z,43.10
2023-05-08T05:13:08.433Z,50.11
2023-05-08T05:14:08.483Z,54.06
2023-05-08T05:15:08.400Z,57.91
2023-05-08T05:16:08.488Z,55.38
2023-05-08T05:17:08.398Z,57.41
2023-05-08T05:18:08.486Z,56.72
2023-05-08T05:19:08.399Z,56.07
2023-05-08T05:20:08.431Z,56.11
2023-05-08T05:21:08.434Z,56.42
2023-05-08T05:22:08.441Z,56.71
2023-05-08T05:23:08.461Z,59.01
2023-05-08T05:24:08.503Z,58.36
2023-05-08T05:25:08.486Z,56.16
2023-05-08T05:26:08.516Z,56.27
2023-05-08T05:27:08.486Z,56.41
2023-05-08T05:28:08.524Z,55.22
2023-05-08T05:29:08.681Z,55.70
2023-05-08T05:30:08.547Z,56.12
2023-05-08T05:31:08.583Z,55.97
2023-05-08T05:32:08.762Z,56.75
2023-05-08T05:33:08.764Z,60.09
2023-05-08T05:34:08.647Z,67.52
2023-05-08T05:35:08.707Z,78.12
2023-05-08T05:36:08.596Z,87.85
2023-05-08T05:37:08.629Z,94.86
2023-05-08T05:38:08.624Z,95.10
2023-05-08T05:39:08.770Z,95.82
2023-05-08T05:40:08.666Z,97.16
2023-05-08T05:41:08.677Z,99.07
2023-05-08T05:42:08.672Z,97.92
2023-05-08T05:43:08.694Z,95.74
2023-05-08T05:44:08.722Z,97.03
2023-05-08T05:45:08.759Z,95.86
2023-05-08T05:46:09.219Z,90.83
2023-05-08T05:47:08.886Z,89.60
2023-05-08T05:48:08.978Z,83.50
2023-05-08T05:49:08.797Z,82.45
2023-05-08T05:50:08.845Z,79.12
2023-05-08T05:51:08.828Z,76.70
2023-05-08T05:52:08.864Z,75.24
2023-05-08T05:53:09.881Z,74.95
2023-05-08T05:54:08.962Z,70.68
2023-05-08T05:55:08.897Z,69.54
2023-05-08T05:56:08.961Z,69.65
2023-05-08T05:57:09.002Z,66.52
2023-05-08T05:58:09.021Z,65.49
2023-05-08T05:59:08.978Z,64.11
2023-05-08T06:00:09.094Z,64.13
2023-05-08T06:01:09.151Z,65.36
2023-05-08T06:02:09.291Z,69.66
2023-05-08T06:03:09.176Z,79.83
2023-05-08T06:04:09.123Z,92.87
2023-05-08T06:05:09.053Z,96.97
2023-05-08T06:06:09.124Z,97.01
2023-05-08T06:07:09.097Z,97.29
2023-05-08T06:08:09.129Z,97.95
2023-05-08T06:09:09.169Z,101.76
2023-05-08T06:10:09.128Z,107.50
2023-05-08T06:11:09.167Z,113.77
2023-05-08T06:12:09.164Z,112.69
2023-05-08T06:13:09.197Z,114.93
2023-05-08T06:14:09.171Z,114.20
2023-05-08T06:15:09.240Z,117.66
2023-05-08T06:16:09.317Z,120.24
2023-05-08T06:17:09.271Z,122.64
2023-05-08T06:18:11.830Z,124.41
2023-05-08T06:20:28.622Z,25.00
2023-05-08T06:21:28.790Z,25.00
2023-05-08T06:22:30.773Z,25.00
2023-05-08T06:23:28.633Z,25.00
2023-05-08T06:24:28.592Z,25.00
2023-05-08T06:25:28.595Z,25.00
2023-05-08T06:26:28.638Z,25.00
2023-05-08T06:27:29.268Z,25.00
2023-05-08T06:28:28.606Z,26.67
2023-05-08T06:29:28.599Z,26.36
2023-05-08T06:30:28.595Z,25.00
2023-05-08T06:31:28.849Z,33.74
2023-05-08T06:32:28.717Z,36.47
2023-05-08T06:33:28.666Z,26.42
2023-05-08T06:34:28.652Z,34.86
2023-05-08T06:35:29.302Z,34.25
2023-05-08T06:36:28.819Z,34.29
2023-05-08T06:37:28.989Z,34.36
2023-05-08T06:38:28.962Z,34.59
2023-05-08T06:39:29.097Z,26.37
2023-05-08T06:40:29.105Z,30.34
2023-05-08T06:41:29.103Z,25.95
2023-05-08T06:42:29.130Z,25.00
2023-05-08T06:43:29.213Z,25.58
2023-05-08T06:44:29.212Z,24.69
2023-05-08T06:45:29.243Z,29.92
2023-05-08T06:46:29.290Z,25.80
2023-05-08T06:47:29.355Z,25.00
2023-05-08T06:48:29.530Z,25.39
2023-05-08T06:49:29.358Z,25.00
2023-05-08T06:50:29.330Z,0.00
2023-05-08T06:51:29.483Z,0.00
2023-05-08T06:52:29.370Z,0.00
2023-05-08T06:53:29.326Z,0.00
2023-05-08T06:54:29.337Z,0.00
2023-05-08T06:55:29.398Z,0.00
2023-05-08T06:56:29.327Z,0.00
2023-05-08T06:57:29.366Z,0.00
2023-05-08T06:58:29.338Z,0.00
2023-05-08T06:59:29.353Z,0.00
2023-05-08T07:00:29.335Z,0.00
2023-05-08T07:01:29.432Z,0.00
2023-05-08T07:02:30.349Z,0.00
2023-05-08T07:03:29.390Z,0.00
2023-05-08T07:04:31.985Z,0.00
2023-05-08T07:05:29.421Z,0.00
2023-05-08T07:06:29.521Z,0.00
2023-05-08T07:07:29.465Z,0.00
2023-05-08T07:08:29.420Z,0.00
2023-05-08T07:09:29.506Z,0.00
2023-05-08T07:10:29.422Z,0.00
2023-05-08T07:11:29.503Z,0.00
2023-05-08T07:12:29.512Z,0.00
2023-05-08T07:13:29.615Z,0.00
2023-05-08T07:14:29.484Z,0.00
2023-05-08T07:15:29.725Z,0.00
2023-05-08T07:16:30.341Z,0.00
2023-05-08T07:17:29.535Z,0.00
2023-05-08T07:18:29.571Z,0.00
2023-05-08T07:19:29.671Z,1.88
2023-05-08T07:20:29.760Z,27.85
2023-05-08T07:21:29.734Z,44.77
2023-05-08T07:22:29.825Z,56.12
2023-05-08T07:23:29.600Z,52.00
2023-05-08T07:24:29.614Z,52.40
2023-05-08T07:25:29.688Z,39.57
2023-05-08T07:26:29.654Z,48.14
2023-05-08T07:27:29.717Z,49.95
2023-05-08T07:28:29.725Z,51.04
2023-05-08T07:29:29.713Z,51.52
2023-05-08T07:30:29.729Z,53.54
2023-05-08T07:31:29.743Z,57.79
2023-05-08T07:32:29.817Z,62.61
2023-05-08T07:33:29.747Z,59.52
2023-05-08T07:34:29.797Z,56.36
2023-05-08T07:35:29.870Z,51.36
2023-05-08T07:36:29.834Z,84.87
2023-05-08T07:37:29.869Z,114.58
2023-05-08T07:38:29.872Z,141.35
2023-05-08T07:39:29.877Z,172.55
2023-05-08T07:40:30.824Z,198.12
2023-05-08T07:41:29.997Z,218.21
2023-05-08T07:42:29.880Z,242.46
2023-05-08T07:43:30.324Z,251.59
2023-05-08T07:44:31.764Z,242.42
2023-05-08T07:45:30.937Z,241.89
2023-05-08T07:46:29.974Z,243.50
2023-05-08T07:47:29.975Z,250.81
2023-05-08T07:48:29.965Z,260.59
2023-05-08T07:49:29.964Z,287.82
2023-05-08T07:50:29.975Z,275.86
2023-05-08T07:51:29.986Z,251.55
2023-05-08T07:52:29.989Z,247.38
2023-05-08T07:53:30.016Z,249.53
2023-05-08T07:54:30.008Z,249.70
2023-05-08T07:55:30.038Z,251.35
2023-05-08T07:56:30.801Z,255.99
2023-05-08T07:57:30.069Z,268.74
2023-05-08T07:58:32.371Z,286.37
2023-05-08T07:59:30.048Z,265.31
2023-05-08T08:00:30.090Z,250.05
2023-05-08T08:01:30.062Z,247.36
2023-05-08T08:02:30.162Z,249.72
2023-05-08T08:03:30.289Z,248.97
2023-05-08T08:04:30.343Z,249.34
2023-05-08T08:05:30.223Z,248.34
2023-05-08T08:06:30.243Z,236.77
2023-05-08T08:07:30.272Z,242.85
2023-05-08T08:08:30.313Z,247.11
2023-05-08T08:09:30.590Z,240.94
2023-05-08T08:10:30.393Z,235.90
2023-05-08T08:11:30.534Z,236.18
2023-05-08T08:12:30.455Z,228.56
2023-05-08T08:13:31.094Z,225.46
2023-05-08T08:14:30.566Z,224.61
2023-05-08T08:15:30.552Z,217.46
2023-05-08T08:16:32.368Z,209.91
2023-05-08T08:17:30.646Z,206.33
2023-05-08T08:18:30.596Z,202.97
2023-05-08T08:19:30.601Z,199.67
2023-05-08T08:20:30.658Z,194.90
2023-05-08T08:21:30.645Z,191.85
2023-05-08T08:22:30.711Z,187.54
2023-05-08T08:23:32.352Z,186.99
2023-05-08T08:24:30.706Z,187.47
2023-05-08T08:25:30.966Z,186.51
2023-05-08T08:26:30.767Z,188.19
2023-05-08T08:27:30.726Z,188.78
2023-05-08T08:28:30.822Z,182.12
2023-05-08T08:29:30.974Z,177.47
2023-05-08T08:30:30.951Z,177.55
2023-05-08T08:31:31.058Z,179.71
2023-05-08T08:32:31.325Z,172.30
2023-05-08T08:33:31.188Z,170.48
2023-05-08T08:34:31.208Z,165.97
2023-05-08T08:35:31.364Z,161.65
2023-05-08T08:36:31.374Z,159.11
2023-05-08T08:37:31.451Z,155.16
2023-05-08T08:38:31.537Z,150.61
2023-05-08T08:39:31.567Z,150.76
2023-05-08T08:40:31.656Z,142.99
2023-05-08T08:41:31.833Z,139.66
2023-05-08T08:42:31.812Z,139.26
2023-05-08T08:43:31.860Z,139.40
2023-05-08T08:44:31.849Z,139.32
2023-05-08T08:45:31.881Z,134.97
2023-05-08T08:46:32.865Z,129.45
2023-05-08T08:47:31.947Z,125.06
2023-05-08T08:48:32.493Z,128.30
2023-05-08T08:49:31.967Z,124.94
2023-05-08T08:50:31.959Z,126.83
2023-05-08T08:51:31.973Z,125.18
2023-05-08T08:52:32.006Z,118.19
2023-05-08T08:53:33.323Z,113.94
2023-05-08T08:54:32.132Z,120.98
2023-05-08T08:55:32.031Z,118.86
2023-05-08T08:56:32.073Z,123.04
2023-05-08T08:57:32.084Z,128.16
2023-05-08T08:58:32.136Z,134.30
2023-05-08T08:59:32.195Z,136.07
2023-05-08T09:00:32.160Z,137.47
2023-05-08T09:01:32.298Z,137.57
2023-05-08T09:02:32.347Z,137.86
2023-05-08T09:03:32.359Z,139.04
2023-05-08T09:04:32.269Z,141.55
2023-05-08T09:05:32.237Z,146.32
2023-05-08T09:06:32.308Z,150.29
2023-05-08T09:07:32.261Z,146.40
2023-05-08T09:08:32.312Z,142.08
2023-05-08T09:09:32.323Z,139.43
2023-05-08T09:10:32.905Z,139.37
2023-05-08T09:11:32.559Z,137.38
2023-05-08T09:12:32.540Z,132.27
2023-05-08T09:13:34.983Z,130.91
2023-05-08T09:14:32.696Z,131.13
2023-05-08T09:15:32.771Z,129.82
2023-05-08T09:16:32.907Z,125.61
2023-05-08T09:17:33.022Z,119.71
2023-05-08T09:18:33.069Z,109.31
2023-05-08T09:19:33.021Z,104.15
2023-05-08T09:20:33.168Z,100.06
2023-05-08T09:21:33.092Z,99.28
2023-05-08T09:22:33.185Z,102.01
2023-05-08T09:23:33.192Z,105.00
2023-05-08T09:24:33.930Z,105.00
2023-05-08T09:25:33.332Z,101.95
2023-05-08T09:26:33.357Z,102.07
2023-05-08T09:27:33.374Z,102.11
2023-05-08T09:28:33.457Z,103.57
2023-05-08T09:29:33.408Z,103.60
2023-05-08T09:30:34.344Z,100.18
2023-05-08T09:31:33.478Z,94.56
2023-05-08T09:32:34.360Z,98.10
2023-05-08T09:33:33.639Z,93.66
2023-05-08T09:34:33.550Z,98.44
2023-05-08T09:35:33.545Z,87.10
2023-05-08T09:36:33.553Z,84.84
2023-05-08T09:37:44.505Z,84.23
2023-05-08T09:38:34.270Z,84.33
2023-05-08T09:39:42.798Z,84.49
2023-05-08T09:40:36.601Z,84.24
2023-05-08T09:41:33.753Z,84.25
2023-05-08T09:42:34.347Z,83.80
2023-05-08T09:43:33.786Z,78.16
2023-05-08T09:44:33.793Z,77.28
2023-05-08T09:45:33.800Z,73.66
2023-05-08T09:46:33.810Z,70.72
2023-05-08T09:47:33.883Z,75.66
2023-05-08T09:48:34.362Z,83.31
2023-05-08T09:49:33.965Z,86.79
2023-05-08T09:50:35.011Z,87.63
2023-05-08T09:51:33.948Z,81.78
2023-05-08T09:52:33.972Z,83.75
2023-05-08T09:53:40.944Z,76.24
2023-05-08T09:54:34.163Z,76.41
2023-05-08T09:55:33.976Z,76.40
2023-05-08T09:56:34.010Z,76.31
2023-05-08T09:57:33.994Z,68.38
2023-05-08T09:58:34.077Z,60.10
2023-05-08T09:59:34.478Z,55.08
2023-05-08T10:00:34.100Z,53.00
2023-05-08T10:01:34.336Z,50.67
2023-05-08T10:02:48.054Z,51.77
2023-05-08T10:03:35.870Z,51.79
2023-05-08T10:06:04.105Z,25.00
2023-05-08T10:07:04.405Z,25.00
2023-05-08T10:08:04.225Z,25.00
2023-05-08T10:09:04.440Z,25.00
2023-05-08T10:10:04.670Z,25.00
2023-05-08T10:11:04.935Z,25.00
2023-05-08T10:12:04.426Z,30.29
2023-05-08T10:13:04.730Z,35.56
2023-05-08T10:14:04.556Z,26.98
2023-05-08T10:15:04.694Z,26.17
2023-05-08T10:16:04.695Z,25.00
2023-05-08T10:17:04.835Z,25.43
2023-05-08T10:18:05.047Z,27.48
2023-05-08T10:19:05.045Z,30.46
2023-05-08T10:20:04.996Z,38.88
2023-05-08T10:21:05.106Z,36.61
2023-05-08T10:22:05.181Z,31.73
2023-05-08T10:23:05.218Z,33.88
2023-05-08T10:24:06.183Z,38.74
2023-05-08T10:25:07.720Z,39.17
2023-05-08T10:26:05.353Z,41.52
2023-05-08T10:27:07.382Z,40.26
2023-05-08T10:28:05.365Z,34.25
2023-05-08T10:29:05.389Z,30.48
2023-05-08T10:30:05.319Z,25.83
2023-05-08T10:31:05.493Z,20.04
2023-05-08T10:32:05.511Z,14.56
2023-05-08T10:33:05.389Z,21.20
2023-05-08T10:34:05.341Z,16.90
2023-05-08T10:35:05.359Z,16.24
2023-05-08T10:36:05.383Z,15.17
2023-05-08T10:37:15.500Z,7.63
2023-05-08T10:38:06.086Z,23.25
2023-05-08T10:39:05.434Z,16.45
2023-05-08T10:40:05.468Z,26.41
2023-05-08T10:41:05.735Z,35.48
2023-05-08T10:42:05.503Z,43.15
2023-05-08T10:43:05.940Z,57.85
2023-05-08T10:44:05.497Z,70.39
2023-05-08T10:45:05.541Z,92.79
2023-05-08T10:46:05.549Z,93.86
2023-05-08T10:47:05.530Z,105.34
2023-05-08T10:48:05.650Z,144.69
2023-05-08T10:49:05.579Z,202.75
2023-05-08T10:50:05.527Z,287.91
2023-05-08T10:51:05.584Z,257.45
2023-05-08T10:52:05.480Z,261.86
2023-05-08T10:53:06.126Z,264.75
2023-05-08T10:54:05.501Z,263.81
2023-05-08T10:55:05.479Z,259.15
2023-05-08T10:56:05.528Z,256.94
2023-05-08T10:57:05.619Z,252.99
2023-05-08T10:58:05.487Z,249.36
2023-05-08T10:59:05.561Z,250.00
2023-05-08T11:00:05.594Z,249.48
2023-05-08T11:01:07.442Z,250.00
2023-05-08T11:02:05.692Z,250.00
2023-05-08T11:03:07.131Z,250.26
2023-05-08T11:04:05.699Z,250.42
2023-05-08T11:05:05.568Z,251.60
2023-05-08T11:06:05.744Z,250.75
2023-05-08T11:07:05.565Z,253.02
2023-05-08T11:08:05.549Z,256.27
2023-05-08T11:09:05.534Z,260.29
2023-05-08T11:10:05.604Z,264.35
2023-05-08T11:11:05.514Z,254.18
2023-05-08T11:12:05.469Z,249.89
2023-05-08T11:13:05.596Z,249.90
2023-05-08T11:14:05.599Z,249.29
2023-05-08T11:15:05.437Z,250.00
2023-05-08T11:16:05.632Z,250.00
2023-05-08T11:17:05.452Z,250.00
2023-05-08T11:18:05.422Z,249.41
2023-05-08T11:19:05.395Z,250.00
2023-05-08T11:20:05.375Z,249.26
2023-05-08T11:21:05.347Z,250.00
2023-05-08T11:22:05.320Z,249.20
2023-05-08T11:23:05.355Z,249.51
2023-05-08T11:24:05.349Z,249.38
2023-05-08T11:25:05.394Z,249.69
2023-05-08T11:26:05.268Z,249.85
2023-05-08T11:27:05.315Z,251.04
2023-05-08T11:28:05.198Z,255.16
2023-05-08T11:29:05.288Z,264.00
2023-05-08T11:30:05.269Z,278.75
2023-05-08T11:31:05.271Z,277.72
2023-05-08T11:32:05.173Z,270.44
2023-05-08T11:33:05.440Z,263.11
2023-05-08T11:34:05.178Z,256.12
2023-05-08T11:35:05.092Z,251.16
2023-05-08T11:36:05.165Z,249.26
2023-05-08T11:37:05.044Z,249.74
2023-05-08T11:38:05.014Z,249.36
2023-05-08T11:39:05.010Z,249.66
2023-05-08T11:40:05.011Z,248.84
2023-05-08T11:41:05.015Z,249.89
2023-05-08T11:42:04.955Z,249.50
2023-05-08T11:43:04.934Z,248.94
2023-05-08T11:44:04.931Z,250.00
2023-05-08T11:45:04.917Z,249.94
2023-05-08T11:46:04.950Z,250.00
2023-05-08T11:47:05.039Z,249.88
2023-05-08T11:48:05.004Z,249.99
2023-05-08T11:49:04.972Z,250.06
2023-05-08T11:50:04.952Z,250.65
2023-05-08T11:51:04.903Z,251.95
2023-05-08T11:52:04.877Z,254.53
2023-05-08T11:53:04.848Z,257.91
2023-05-08T11:54:04.897Z,250.25
2023-05-08T11:55:04.810Z,250.30
2023-05-08T11:56:04.804Z,250.37
2023-05-08T11:57:04.772Z,252.19
2023-05-08T11:58:04.759Z,255.63
2023-05-08T11:59:04.805Z,260.87
2023-05-08T12:00:04.777Z,267.83
2023-05-08T12:01:04.874Z,261.10
2023-05-08T12:02:09.268Z,254.22
2023-05-08T12:03:04.723Z,254.31
2023-05-08T12:04:04.862Z,254.70
2023-05-08T12:05:04.792Z,255.58
2023-05-08T12:06:04.598Z,257.73
2023-05-08T12:07:04.558Z,260.03
2023-05-08T12:08:04.501Z,252.27
2023-05-08T12:09:04.520Z,249.99
2023-05-08T12:10:04.468Z,250.00
2023-05-08T12:11:04.519Z,250.00
2023-05-08T12:12:04.485Z,249.54
2023-05-08T12:13:04.576Z,250.00
2023-05-08T12:14:04.543Z,250.00
2023-05-08T12:15:04.501Z,250.03
2023-05-08T12:16:04.477Z,250.36
2023-05-08T12:17:04.472Z,251.02
2023-05-08T12:18:04.473Z,252.55
2023-05-08T12:19:04.401Z,255.10
2023-05-08T12:20:04.469Z,249.98
2023-05-08T12:21:04.497Z,249.65
2023-05-08T12:22:04.420Z,249.94
2023-05-08T12:23:04.339Z,249.62
2023-05-08T12:24:04.353Z,250.00
2023-05-08T12:25:04.402Z,250.00
2023-05-08T12:26:04.419Z,250.00
2023-05-08T12:27:04.457Z,250.00
2023-05-08T12:28:04.498Z,249.54
2023-05-08T12:29:04.722Z,248.13
2023-05-08T12:30:04.561Z,248.37
2023-05-08T12:31:04.611Z,249.87
2023-05-08T12:32:04.607Z,250.00
2023-05-08T12:33:04.697Z,249.59
2023-05-08T12:34:05.016Z,249.96
2023-05-08T12:35:04.786Z,249.64
2023-05-08T12:36:04.756Z,249.79
2023-05-08T12:37:04.796Z,250.00
2023-05-08T12:38:04.824Z,249.83
2023-05-08T12:39:04.893Z,248.96
2023-05-08T12:40:04.900Z,249.44
2023-05-08T12:41:04.935Z,250.00
2023-05-08T12:42:05.013Z,249.86